Time;durP1;ratioP1;P1;durP2;ratioP2;P2;SDS_P1;SDS_P2;PMS_P1;PMS_P2;Temp;Humidity;BMP_temperature;BMP_pressure;BME280_temperature;BME280_humidity;BME280_pressure;Samples;Min_cycle;Max_cycle;Signal;HPM_P1;HPM_P2
2021/08/21 00:01:20;;;;;;;;;;;;;;;18.62;66.91;98427.23;1766599;80;20485;-86
2021/08/21 00:03:46;;;;;;;;;;;;;;;18.58;67.02;98420.10;1792309;79;20276;-89
2021/08/21 00:06:12;;;;;;;;;;;;;;;18.56;67.10;98414.12;1736727;82;21965;-89
2021/08/21 00:08:38;;;;;;;;;;;;;;;18.52;67.18;98418.05;1778518;79;25992;-89
2021/08/21 00:11:04;;;;;;;;;;;;;;;18.52;67.26;98418.05;1788799;79;23851;-90
2021/08/21 00:13:30;;;;;;;;;;;;;;;18.50;67.32;98414.71;1781668;78;20258;-90
2021/08/21 00:15:57;;;;;;;;;;;;;;;18.48;67.41;98420.68;1789048;79;24564;-90
2021/08/21 00:18:23;;;;;;;;;;;;;;;18.48;67.50;98420.68;1791453;79;21927;-89
2021/08/21 00:20:49;;;;;;;;;;;;;;;18.46;67.58;98415.19;1798085;79;21095;-90
2021/08/21 00:23:15;;;;;;;;;;;;;;;18.35;67.63;98420.26;1779281;79;24435;-86
2021/08/21 00:25:41;;;;;;;;;;;;;;;18.26;67.73;98418.55;1790431;79;20617;-88
2021/08/21 00:28:07;;;;;;;;;;;;;;;18.18;67.84;98419.81;1780884;79;20241;-88
2021/08/21 00:30:33;;;;;;;;;;;;;;;18.13;67.97;98420.77;1751613;81;22035;-88
2021/08/21 00:32:59;;;;;;;;;;;;;;;18.12;68.11;98419.10;1742483;81;26030;-88
2021/08/21 00:35:25;;;;;;;;;;;;;;;18.20;68.26;98417.85;1792187;78;24462;-88
2021/08/21 00:37:52;;;;;;;;;;;;;;;18.27;68.37;98423.67;1755424;80;20245;-87
2021/08/21 00:40:18;;;;;;;;;;;;;;;18.33;68.49;98419.08;1772625;79;24577;-87
2021/08/21 00:42:44;;;;;;;;;;;;;;;18.42;68.59;98414.69;1764656;80;21947;-87
2021/08/21 00:45:16;;;;;;;;;;;;;;;18.50;68.68;98417.85;1767622;80;20933;-87
2021/08/21 00:47:42;;;;;;;;;;;;;;;18.54;68.75;98416.11;1775012;80;24707;-85
2021/08/21 00:50:08;;;;;;;;;;;;;;;18.59;68.83;98418.28;1773040;80;20293;-85
2021/08/21 00:52:38;;;;;;;;;;;;;;;18.55;68.88;98416.42;1768424;80;24630;-85
2021/08/21 00:55:10;;;;;;;;;;;;;;;18.39;68.91;98428.22;1763081;80;21964;-85
2021/08/21 00:57:37;;;;;;;;;;;;;;;18.25;68.98;98425.67;1765890;80;25279;-84
2021/08/21 01:00:03;;;;;;;;;;;;;;;18.19;69.10;98421.48;1774352;80;24520;-83
2021/08/21 01:02:31;;;;;;;;;;;;;;;18.11;69.20;98416.14;1779850;80;20327;-84
2021/08/21 01:04:59;;;;;;;;;;;;;;;18.04;69.31;98420.38;1775830;80;24545;-84
2021/08/21 01:07:27;;;;;;;;;;;;;;;17.97;69.46;98414.38;1766480;80;21299;-83
2021/08/21 01:09:53;;;;;;;;;;;;;;;18.05;69.62;98416.27;1763987;80;26887;-83
2021/08/21 01:12:20;;;;;;;;;;;;;;;18.09;69.76;98415.45;1776195;80;24441;-83
2021/08/21 01:14:47;;;;;;;;;;;;;;;18.22;69.87;98417.22;1769189;80;20266;-83
2021/08/21 01:17:13;;;;;;;;;;;;;;;18.31;69.96;98413.62;1774562;80;24548;-84
2021/08/21 01:19:41;;;;;;;;;;;;;;;18.36;70.02;98413.98;1770563;79;22131;-84
2021/08/21 01:22:10;;;;;;;;;;;;;;;18.37;70.06;98412.50;1761582;80;26844;-83
2021/08/21 01:24:39;;;;;;;;;;;;;;;18.27;70.12;98407.78;1754449;80;24571;-84
2021/08/21 01:27:05;;;;;;;;;;;;;;;18.18;70.14;98409.22;1770213;80;20339;-85
2021/08/21 01:29:31;;;;;;;;;;;;;;;18.04;70.16;98407.98;1785916;78;24533;-85
2021/08/21 01:31:57;;;;;;;;;;;;;;;17.96;70.21;98402.61;1791273;79;20270;-86
2021/08/21 01:34:23;;;;;;;;;;;;;;;18.04;70.31;98407.14;1763583;79;26026;-87
2021/08/21 01:36:50;;;;;;;;;;;;;;;18.12;70.38;98408.51;1764643;80;24390;-87
2021/08/21 01:39:17;;;;;;;;;;;;;;;18.09;70.43;98405.69;1766838;80;20487;-86
2021/08/21 01:41:43;;;;;;;;;;;;;;;18.04;70.47;98409.80;1757157;80;24544;-87
2021/08/21 01:44:10;;;;;;;;;;;;;;;17.97;70.51;98396.33;1767750;80;22122;-90
2021/08/21 01:46:38;;;;;;;;;;;;;;;17.85;70.53;98399.71;1771417;80;25973;-89
2021/08/21 01:49:09;;;;;;;;;;;;;;;17.71;70.58;98398.11;1772079;80;24488;-89
2021/08/21 01:51:36;;;;;;;;;;;;;;;17.60;70.64;98401.83;1779734;80;20276;-87
2021/08/21 01:54:03;;;;;;;;;;;;;;;17.49;70.71;98384.83;1772716;80;24499;-87
2021/08/21 01:56:33;;;;;;;;;;;;;;;17.65;70.82;98391.61;1765219;80;22048;-87
2021/08/21 01:58:57;;;;;;;;;;;;;;;17.79;70.93;98396.84;1776798;80;27036;-87
2021/08/21 02:01:23;;;;;;;;;;;;;;;17.88;71.01;98397.27;1764376;80;24435;-87
2021/08/21 02:03:49;;;;;;;;;;;;;;;17.85;71.03;98395.74;1775308;80;20280;-87
2021/08/21 02:06:15;;;;;;;;;;;;;;;17.81;71.07;98394.88;1778199;80;24527;-87
2021/08/21 02:08:41;;;;;;;;;;;;;;;17.81;71.09;98399.69;1780151;80;21996;-88
2021/08/21 02:11:07;;;;;;;;;;;;;;;17.81;71.13;98392.23;1782248;80;21048;-88
2021/08/21 02:13:36;;;;;;;;;;;;;;;17.76;71.14;98394.02;1771523;80;20263;-88
2021/08/21 02:16:02;;;;;;;;;;;;;;;17.61;71.14;98394.23;1774593;80;20471;-84
2021/08/21 02:18:28;;;;;;;;;;;;;;;17.52;71.17;98392.45;1777194;80;24664;-85
2021/08/21 02:20:54;;;;;;;;;;;;;;;17.51;71.21;98398.75;1779044;80;20330;-85
2021/08/21 02:23:20;;;;;;;;;;;;;;;17.48;71.24;98392.41;1768824;80;21141;-86
2021/08/21 02:25:49;;;;;;;;;;;;;;;17.59;71.31;98396.16;1774493;80;20278;-86
2021/08/21 02:28:20;;;;;;;;;;;;;;;17.71;71.37;98400.27;1775769;80;20266;-86
2021/08/21 02:30:46;;;;;;;;;;;;;;;17.78;71.39;98400.50;1775242;80;24375;-86
2021/08/21 02:33:12;;;;;;;;;;;;;;;17.78;71.39;98404.47;1783193;78;22231;-85
2021/08/21 02:35:38;;;;;;;;;;;;;;;17.68;71.37;98404.53;1776049;78;26038;-86
2021/08/21 02:38:11;;;;;;;;;;;;;;;17.72;71.37;98402.43;1776933;80;24451;-85
2021/08/21 02:40:37;;;;;;;;;;;;;;;17.76;71.39;98412.55;1774992;80;20267;-85
2021/08/21 02:43:04;;;;;;;;;;;;;;;17.74;71.38;98407.06;1744853;82;24336;-86
2021/08/21 02:45:30;;;;;;;;;;;;;;;17.67;71.36;98408.67;1791951;79;22048;-86
2021/08/21 02:47:56;;;;;;;;;;;;;;;17.60;71.36;98408.94;1785042;79;26064;-86
2021/08/21 02:50:22;;;;;;;;;;;;;;;17.46;71.37;98411.56;1786278;79;24574;-86
2021/08/21 02:52:56;;;;;;;;;;;;;;;17.31;71.37;98410.44;1775303;79;20207;-85
2021/08/21 02:55:23;;;;;;;;;;;;;;;17.17;71.38;98406.98;1747525;81;24611;-86
2021/08/21 02:57:49;;;;;;;;;;;;;;;17.09;71.46;98413.01;1782560;79;22111;-86
2021/08/21 03:00:15;;;;;;;;;;;;;;;17.01;71.49;98406.33;1796953;79;26228;-86
2021/08/21 03:02:41;;;;;;;;;;;;;;;17.03;71.57;98405.18;1786862;79;24460;-86
2021/08/21 03:05:08;;;;;;;;;;;;;;;17.01;71.67;98405.00;1739715;81;20258;-86
2021/08/21 03:07:36;;;;;;;;;;;;;;;16.89;71.69;98414.11;1758921;80;24635;-86
2021/08/21 03:10:05;;;;;;;;;;;;;;;16.83;71.76;98416.84;1759215;80;22066;-86
2021/08/21 03:12:32;;;;;;;;;;;;;;;16.87;71.86;98414.25;1753753;81;27570;-86
2021/08/21 03:14:59;;;;;;;;;;;;;;;16.84;71.95;98417.20;1781004;79;24608;-85
2021/08/21 03:17:25;;;;;;;;;;;;;;;16.76;71.99;98411.80;1784665;79;20452;-85
2021/08/21 03:19:51;;;;;;;;;;;;;;;16.70;72.03;98417.17;1780262;79;20218;-85
2021/08/21 03:22:17;;;;;;;;;;;;;;;16.67;72.10;98420.61;1759496;80;21968;-85
2021/08/21 03:24:43;;;;;;;;;;;;;;;16.67;72.20;98421.93;1735699;80;21562;-85
2021/08/21 03:27:09;;;;;;;;;;;;;;;16.77;72.31;98424.52;1790180;79;24474;-84
2021/08/21 03:29:35;;;;;;;;;;;;;;;16.87;72.43;98426.14;1732850;81;20318;-84
2021/08/21 03:32:01;;;;;;;;;;;;;;;16.98;72.52;98424.63;1757874;80;24541;-84
2021/08/21 03:34:27;;;;;;;;;;;;;;;17.08;72.59;98418.78;1728256;80;21886;-84
2021/08/21 03:36:54;;;;;;;;;;;;;;;17.11;72.64;98421.16;1758383;80;25996;-84
2021/08/21 03:39:20;;;;;;;;;;;;;;;17.17;72.66;98426.83;1750964;80;24503;-84
2021/08/21 03:41:46;;;;;;;;;;;;;;;17.12;72.66;98425.47;1764219;79;20289;-84
2021/08/21 03:44:12;;;;;;;;;;;;;;;17.05;72.68;98436.28;1761373;80;24598;-84
2021/08/21 03:46:38;;;;;;;;;;;;;;;16.95;72.69;98430.70;1758881;80;20256;-85
2021/08/21 03:49:04;;;;;;;;;;;;;;;16.90;72.71;98433.80;1759449;80;25942;-85
2021/08/21 03:51:30;;;;;;;;;;;;;;;16.76;72.71;98442.67;1768320;80;24644;-85
2021/08/21 03:53:56;;;;;;;;;;;;;;;16.67;72.69;98440.42;1758607;80;20268;-85
2021/08/21 03:56:22;;;;;;;;;;;;;;;16.70;72.77;98437.00;1765066;80;24582;-85
2021/08/21 03:58:48;;;;;;;;;;;;;;;16.81;72.84;98445.23;1758051;80;22110;-85
2021/08/21 04:01:14;;;;;;;;;;;;;;;16.82;72.90;98451.34;1762355;80;20978;-84
2021/08/21 04:03:40;;;;;;;;;;;;;;;16.82;72.95;98446.89;1761319;80;24523;-84
2021/08/21 04:06:07;;;;;;;;;;;;;;;16.84;72.99;98447.59;1758970;80;20812;-84
2021/08/21 04:08:33;;;;;;;;;;;;;;;16.79;73.00;98456.94;1763229;80;25148;-84
2021/08/21 04:11:00;;;;;;;;;;;;;;;16.76;73.04;98452.77;1756483;80;36124;-84
2021/08/21 04:13:28;;;;;;;;;;;;;;;16.84;73.10;98456.01;1758041;80;26048;-84
2021/08/21 04:15:57;;;;;;;;;;;;;;;16.89;73.16;98462.52;1758121;80;24465;-84
2021/08/21 04:18:23;;;;;;;;;;;;;;;16.87;73.16;98463.15;1763531;80;20675;-85
2021/08/21 04:20:49;;;;;;;;;;;;;;;16.83;73.20;98463.11;1762168;80;24559;-84
2021/08/21 04:23:15;;;;;;;;;;;;;;;16.77;73.23;98472.93;1759572;80;22109;-84
2021/08/21 04:25:41;;;;;;;;;;;;;;;16.74;73.25;98481.16;1759109;80;21027;-84
2021/08/21 04:28:07;;;;;;;;;;;;;;;16.73;73.31;98478.17;1750620;80;24505;-84
2021/08/21 04:30:33;;;;;;;;;;;;;;;16.75;73.34;98486.77;1754767;80;20321;-84
2021/08/21 04:32:59;;;;;;;;;;;;;;;16.78;73.35;98486.50;1762342;80;24558;-84
2021/08/21 04:35:27;;;;;;;;;;;;;;;16.88;73.32;98485.97;1758893;80;20235;-83
2021/08/21 04:37:53;;;;;;;;;;;;;;;16.98;73.32;98485.44;1757612;80;26113;-83
2021/08/21 04:40:21;;;;;;;;;;;;;;;17.10;73.31;98485.59;1760372;80;20844;-84
2021/08/21 04:42:47;;;;;;;;;;;;;;;17.04;73.29;98490.14;1763461;80;20491;-83
2021/08/21 04:45:13;;;;;;;;;;;;;;;17.00;73.29;98490.09;1763004;80;24539;-83
2021/08/21 04:47:39;;;;;;;;;;;;;;;17.08;73.32;98498.60;1757886;80;20446;-84
2021/08/21 04:50:06;;;;;;;;;;;;;;;17.10;73.36;98504.59;1756245;80;25930;-84
2021/08/21 04:52:36;;;;;;;;;;;;;;;17.09;73.39;98508.20;1756792;80;24512;-83
2021/08/21 04:55:03;;;;;;;;;;;;;;;17.14;73.45;98508.11;1761900;80;20267;-84
2021/08/21 04:57:29;;;;;;;;;;;;;;;17.18;73.50;98514.45;1755589;80;24547;-83
2021/08/21 04:59:59;;;;;;;;;;;;;;;17.17;73.57;98523.36;1760374;80;22563;-83
2021/08/21 05:02:25;;;;;;;;;;;;;;;17.14;73.61;98517.37;1755119;80;26060;-83
2021/08/21 05:04:54;;;;;;;;;;;;;;;17.15;73.68;98523.49;1761268;80;20283;-83
2021/08/21 05:07:20;;;;;;;;;;;;;;;17.14;73.72;98522.66;1757100;80;20177;-83
2021/08/21 05:09:46;;;;;;;;;;;;;;;17.25;73.79;98522.95;1755799;80;20794;-83
2021/08/21 05:12:11;;;;;;;;;;;;;;;17.37;73.85;98527.08;1789178;79;20359;-84
2021/08/21 05:14:37;;;;;;;;;;;;;;;17.51;73.89;98531.05;1785961;79;20916;-84
2021/08/21 05:17:05;;;;;;;;;;;;;;;17.60;73.96;98527.54;1740735;81;25159;-84
2021/08/21 05:19:38;;;;;;;;;;;;;;;17.66;74.04;98532.23;1775884;80;20361;-84
2021/08/21 05:24:45;;;;;;;;;;;;;;;17.75;74.21;98527.36;1739152;81;21993;-84
2021/08/21 05:27:11;;;;;;;;;;;;;;;17.83;74.29;98530.11;1764074;79;26030;-84
2021/08/21 05:29:37;;;;;;;;;;;;;;;17.93;74.37;98530.03;1770295;80;24468;-84
2021/08/21 05:32:04;;;;;;;;;;;;;;;18.01;74.42;98529.25;1771921;79;20499;-84
2021/08/21 05:34:33;;;;;;;;;;;;;;;18.05;74.45;98532.80;1773105;79;24515;-84
2021/08/21 05:36:59;;;;;;;;;;;;;;;18.09;74.48;98530.67;1755130;80;22147;-85
2021/08/21 05:39:26;;;;;;;;;;;;;;;18.09;74.49;98541.27;1771152;79;21048;-84
2021/08/21 05:41:52;;;;;;;;;;;;;;;18.11;74.50;98543.28;1771400;79;24515;-85
2021/08/21 05:44:18;;;;;;;;;;;;;;;18.17;74.51;98542.64;1764902;79;20356;-85
2021/08/21 05:46:50;;;;;;;;;;;;;;;18.25;74.55;98547.54;1770779;79;24646;-84
2021/08/21 05:49:18;;;;;;;;;;;;;;;18.30;74.59;98548.40;1777650;80;20161;-85
2021/08/21 05:51:44;;;;;;;;;;;;;;;18.35;74.60;98540.83;1772303;79;26049;-86
2021/08/21 05:54:11;;;;;;;;;;;;;;;18.39;74.65;98543.50;1772922;80;25928;-84
2021/08/21 05:56:37;;;;;;;;;;;;;;;18.40;74.64;98542.52;1770471;79;20143;-84
2021/08/21 05:59:03;;;;;;;;;;;;;;;18.43;74.66;98543.55;1771789;80;20796;-84
2021/08/21 06:01:29;;;;;;;;;;;;;;;18.37;74.70;98545.48;1765225;80;21925;-85
2021/08/21 06:03:55;;;;;;;;;;;;;;;18.38;74.74;98547.95;1767230;79;20960;-85
2021/08/21 06:06:26;;;;;;;;;;;;;;;18.47;74.77;98546.72;1772786;79;24487;-85
2021/08/21 06:08:52;;;;;;;;;;;;;;;18.59;74.80;98554.31;1774526;79;20198;-86
2021/08/21 06:11:20;;;;;;;;;;;;;;;18.69;74.83;98547.08;1744619;80;20185;-85
2021/08/21 06:13:46;;;;;;;;;;;;;;;18.77;74.86;98548.94;1773063;80;22135;-86
2021/08/21 06:16:12;;;;;;;;;;;;;;;18.83;74.86;98554.11;1771635;79;21051;-86
2021/08/21 06:18:40;;;;;;;;;;;;;;;18.84;74.83;98551.80;1772667;80;24393;-85
2021/08/21 06:21:06;;;;;;;;;;;;;;;18.90;74.83;98553.34;1764887;80;20730;-86
2021/08/21 06:23:32;;;;;;;;;;;;;;;18.92;74.80;98552.70;1758195;80;20239;-86
2021/08/21 06:25:58;;;;;;;;;;;;;;;18.98;74.76;98560.53;1759034;81;22658;-86
2021/08/21 06:28:24;;;;;;;;;;;;;;;19.01;74.75;98554.90;1759062;81;21100;-86
2021/08/21 06:30:58;;;;;;;;;;;;;;;19.09;74.77;98554.44;1758009;81;24387;-88
2021/08/21 06:33:22;;;;;;;;;;;;;;;19.17;74.75;98553.66;1732581;82;20320;-85
2021/08/21 06:35:48;;;;;;;;;;;;;;;19.21;74.75;98551.84;1759524;80;25202;-85
2021/08/21 06:38:14;;;;;;;;;;;;;;;19.26;74.73;98555.84;1729899;81;20411;-84
2021/08/21 06:40:40;;;;;;;;;;;;;;;19.35;74.72;98555.74;1727115;82;21196;-85
2021/08/21 06:43:06;;;;;;;;;;;;;;;19.45;74.69;98559.63;1722704;82;24480;-84
2021/08/21 06:45:35;;;;;;;;;;;;;;;19.46;74.64;98554.66;1753634;81;20304;-84
2021/08/21 06:48:00;;;;;;;;;;;;;;;19.47;74.56;98561.14;1745414;82;24590;-84
2021/08/21 06:50:33;;;;;;;;;;;;;;;19.49;74.48;98558.30;1745891;81;20826;-85
2021/08/21 06:52:54;;;;;;;;;;;;;;;19.53;74.45;98556.48;1743055;81;26366;-85
2021/08/21 06:55:21;;;;;;;;;;;;;;;19.58;74.37;98565.33;1743539;81;25377;-85
2021/08/21 06:57:47;;;;;;;;;;;;;;;19.55;74.30;98562.48;1744903;80;20561;-84
2021/08/21 07:00:15;;;;;;;;;;;;;;;19.62;74.25;98564.84;1745096;81;20193;-84
2021/08/21 07:02:41;;;;;;;;;;;;;;;19.70;74.20;98568.00;1746828;81;21949;-84
2021/08/21 07:05:07;;;;;;;;;;;;;;;19.77;74.15;98566.38;1745530;81;20974;-84
2021/08/21 07:07:35;;;;;;;;;;;;;;;19.81;74.07;98564.21;1743438;81;24380;-85
2021/08/21 07:10:04;;;;;;;;;;;;;;;19.78;74.01;98560.07;1739905;81;20204;-85
2021/08/21 07:12:30;;;;;;;;;;;;;;;19.81;73.97;98563.72;1745373;81;24683;-85
2021/08/21 07:14:56;;;;;;;;;;;;;;;19.76;73.91;98565.20;1746382;80;20334;-85
2021/08/21 07:17:22;;;;;;;;;;;;;;;19.70;73.82;98568.49;1710575;82;25869;-85
2021/08/21 07:19:48;;;;;;;;;;;;;;;19.70;73.75;98569.82;1746081;80;24400;-85
2021/08/21 07:22:14;;;;;;;;;;;;;;;19.74;73.71;98573.84;1754321;80;20677;-85
2021/08/21 07:24:46;;;;;;;;;;;;;;;19.85;73.69;98571.72;1764658;79;20308;-84
2021/08/21 07:27:12;;;;;;;;;;;;;;;19.94;73.67;98577.38;1767441;80;22035;-84
2021/08/21 07:29:42;;;;;;;;;;;;;;;19.95;73.57;98574.22;1766307;80;21035;-84
2021/08/21 07:32:08;;;;;;;;;;;;;;;19.89;73.47;98576.20;1770288;80;20154;-85
2021/08/21 07:34:34;;;;;;;;;;;;;;;19.82;73.38;98577.34;1767522;80;20315;-84
2021/08/21 07:37:05;;;;;;;;;;;;;;;19.91;73.32;98576.35;1758788;81;24524;-85
2021/08/21 07:39:35;;;;;;;;;;;;;;;19.96;73.28;98580.71;1742220;81;21960;-84
2021/08/21 07:42:02;;;;;;;;;;;;;;;20.04;73.26;98586.52;1754325;81;26786;-85
2021/08/21 07:44:28;;;;;;;;;;;;;;;20.18;73.28;98584.58;1756473;81;24660;-85
2021/08/21 07:46:57;;;;;;;;;;;;;;;20.31;73.23;98588.05;1754640;81;20523;-84
2021/08/21 07:49:23;;;;;;;;;;;;;;;20.36;73.18;98585.27;1754284;81;24536;-86
2021/08/21 07:51:50;;;;;;;;;;;;;;;20.44;73.15;98584.45;1725241;81;21894;-84
2021/08/21 07:54:16;;;;;;;;;;;;;;;20.46;73.09;98589.92;1751716;81;25959;-84
2021/08/21 07:56:45;;;;;;;;;;;;;;;20.48;73.02;98588.93;1763875;81;24583;-84
2021/08/21 07:59:12;;;;;;;;;;;;;;;20.44;72.88;98589.77;1746085;81;20327;-85
2021/08/21 08:01:38;;;;;;;;;;;;;;;20.52;72.81;98597.73;1752591;81;24710;-87
2021/08/21 08:04:04;;;;;;;;;;;;;;;20.49;72.71;98584.78;1751978;81;20263;-84
2021/08/21 08:06:30;;;;;;;;;;;;;;;20.56;72.62;98591.61;1773558;80;25992;-84
2021/08/21 08:11:47;;;;;;;;;;;;;;;20.67;72.48;98600.09;1760484;80;20261;-89
2021/08/21 08:14:13;;;;;;;;;;;;;;;20.82;72.44;98596.24;1762634;80;24613;-86
2021/08/21 08:16:39;;;;;;;;;;;;;;;20.92;72.39;98595.56;1749851;80;20747;-86
2021/08/21 08:19:05;;;;;;;;;;;;;;;21.03;72.30;98597.87;1753266;80;20949;-86
2021/08/21 08:21:32;;;;;;;;;;;;;;;21.08;72.16;98596.86;1749849;80;24494;-85
2021/08/21 08:23:58;;;;;;;;;;;;;;;21.20;72.06;98602.20;1759464;80;20201;-85
2021/08/21 08:26:25;;;;;;;;;;;;;;;21.32;71.97;98608.00;1755120;80;24470;-85
2021/08/21 08:28:51;;;;;;;;;;;;;;;21.39;71.83;98606.29;1762773;80;22068;-85
2021/08/21 08:31:17;;;;;;;;;;;;;;;21.41;71.65;98604.80;1751445;80;26152;-85
2021/08/21 08:33:44;;;;;;;;;;;;;;;21.51;71.48;98609.42;1757292;80;24577;-89
2021/08/21 08:36:10;;;;;;;;;;;;;;;21.56;71.28;98603.91;1756921;80;20262;-85
2021/08/21 08:38:36;;;;;;;;;;;;;;;21.65;71.11;98602.05;1788615;79;24920;-84
2021/08/21 08:41:02;;;;;;;;;;;;;;;21.78;70.92;98608.97;1773976;79;21930;-85
2021/08/21 08:43:29;;;;;;;;;;;;;;;21.91;70.76;98605.25;1740933;81;25991;-85
2021/08/21 08:45:55;;;;;;;;;;;;;;;21.93;70.40;98606.42;1780457;79;24464;-85
2021/08/21 08:48:27;;;;;;;;;;;;;;;22.00;70.17;98602.90;1772667;78;20316;-85
2021/08/21 08:50:54;;;;;;;;;;;;;;;22.02;69.92;98608.89;1729755;81;24553;-85
2021/08/21 08:53:20;;;;;;;;;;;;;;;21.95;69.52;98611.92;1777324;79;21968;-85
2021/08/21 08:55:46;;;;;;;;;;;;;;;21.95;69.21;98611.09;1755850;81;21034;-85
2021/08/21 08:58:19;;;;;;;;;;;;;;;21.99;69.04;98608.39;1762810;80;24626;-85
2021/08/21 09:00:45;;;;;;;;;;;;;;;21.95;68.78;98609.25;1762901;80;20210;-85
2021/08/21 09:03:22;;;;;;;;;;;;;;;21.92;68.51;98610.92;1764475;80;24566;-85
2021/08/21 09:05:49;;;;;;;;;;;;;;;21.86;68.28;98616.11;1777665;79;22716;-86
2021/08/21 09:08:22;;;;;;;;;;;;;;;21.79;68.01;98609.31;1733488;80;25990;-86
2021/08/21 09:10:48;;;;;;;;;;;;;;;21.74;67.78;98616.99;1741189;82;24486;-86
2021/08/21 09:13:15;;;;;;;;;;;;;;;21.76;67.65;98622.99;1758415;80;20193;-86
2021/08/21 09:15:45;;;;;;;;;;;;;;;21.84;67.60;98610.95;1761275;80;24587;-85
2021/08/21 09:18:13;;;;;;;;;;;;;;;21.90;67.51;98616.08;1761780;80;21436;-85
2021/08/21 09:20:50;;;;;;;;;;;;;;;21.85;67.34;98615.77;1757317;80;26674;-85
2021/08/21 09:23:24;;;;;;;;;;;;;;;21.81;67.25;98617.14;1753627;80;24480;-86
2021/08/21 09:25:58;;;;;;;;;;;;;;;21.78;67.12;98622.80;1753790;80;20192;-86
2021/08/21 09:28:25;;;;;;;;;;;;;;;21.77;66.94;98623.79;1757695;80;24587;-86
2021/08/21 09:31:00;;;;;;;;;;;;;;;21.83;66.80;98620.44;1767056;80;22126;-86
2021/08/21 09:33:27;;;;;;;;;;;;;;;21.92;66.68;98622.08;1742193;80;26042;-86
2021/08/21 09:35:53;;;;;;;;;;;;;;;22.11;66.55;98621.16;1751264;80;24489;-85
2021/08/21 09:38:21;;;;;;;;;;;;;;;22.29;66.40;98617.39;1759155;80;20271;-86
2021/08/21 09:40:46;;;;;;;;;;;;;;;22.35;66.14;98612.69;1775505;79;24688;-86
2021/08/21 09:43:22;;;;;;;;;;;;;;;22.47;65.97;98612.61;1751212;79;20447;-86
2021/08/21 09:45:48;;;;;;;;;;;;;;;22.62;65.87;98621.99;1781915;78;26044;-86
2021/08/21 09:48:14;;;;;;;;;;;;;;;22.84;65.82;98614.00;1735339;81;24526;-86
2021/08/21 09:50:41;;;;;;;;;;;;;;;23.04;65.72;98612.97;1778245;79;20840;-86
2021/08/21 09:53:08;;;;;;;;;;;;;;;23.16;65.54;98614.19;1768501;79;24673;-86
2021/08/21 09:55:35;;;;;;;;;;;;;;;23.28;65.36;98612.73;1782008;79;22843;-86
2021/08/21 09:58:17;;;;;;;;;;;;;;;23.38;65.14;98605.78;1770971;79;26372;-85
2021/08/21 10:00:43;;;;;;;;;;;;;;;23.33;64.81;98602.83;1778217;79;24653;-85
2021/08/21 10:03:10;;;;;;;;;;;;;;;23.10;64.26;98612.25;1767587;79;20191;-86
2021/08/21 10:05:48;;;;;;;;;;;;;;;22.85;63.83;98604.16;1773677;78;24582;-85
2021/08/21 10:08:29;;;;;;;;;;;;;;;22.70;63.52;98608.06;1771282;79;21992;-85
2021/08/21 10:10:55;;;;;;;;;;;;;;;22.63;63.30;98601.81;1744761;80;26200;-85
2021/08/21 10:13:30;;;;;;;;;;;;;;;22.52;63.06;98604.90;1749680;80;24379;-85
2021/08/21 10:15:57;;;;;;;;;;;;;;;22.54;63.03;98603.70;1774303;79;20228;-89
2021/08/21 10:18:24;;;;;;;;;;;;;;;22.62;62.99;98600.14;1769652;79;24551;-89
2021/08/21 10:20:50;;;;;;;;;;;;;;;22.78;63.02;98602.70;1786841;78;21967;-90
2021/08/21 10:23:23;;;;;;;;;;;;;;;22.95;62.98;98598.05;1780841;78;25945;-89
2021/08/21 10:25:49;;;;;;;;;;;;;;;23.04;62.84;98600.13;1738996;81;24253;-89
2021/08/21 10:28:16;;;;;;;;;;;;;;;23.06;62.64;98599.45;1728310;80;20162;-89
2021/08/21 10:30:44;;;;;;;;;;;;;;;23.10;62.51;98600.23;1752058;81;24567;-90
2021/08/21 10:33:11;;;;;;;;;;;;;;;23.23;62.50;98599.61;1774857;80;21919;-90
2021/08/21 10:35:50;;;;;;;;;;;;;;;23.26;62.30;98603.23;1785012;80;26036;-89
2021/08/21 10:38:27;;;;;;;;;;;;;;;23.14;62.00;98604.69;1771770;80;24442;-86
2021/08/21 10:40:53;;;;;;;;;;;;;;;22.94;61.68;98606.56;1669175;85;20647;-89
2021/08/21 10:43:20;;;;;;;;;;;;;;;22.75;61.43;98603.05;1735191;82;20860;-89
2021/08/21 10:45:47;;;;;;;;;;;;;;;22.64;61.23;98603.98;1741036;81;22014;-89
2021/08/21 10:48:15;;;;;;;;;;;;;;;22.57;61.11;98603.86;1746208;81;26061;-90
2021/08/21 10:50:49;;;;;;;;;;;;;;;22.49;61.00;98608.73;1736461;81;24668;-90
2021/08/21 10:53:25;;;;;;;;;;;;;;;22.44;60.94;98600.44;1775704;79;20325;-89
2021/08/21 10:55:51;;;;;;;;;;;;;;;22.38;60.93;98601.66;1744703;80;24519;-89
2021/08/21 10:58:21;;;;;;;;;;;;;;;22.24;60.87;98601.09;1750756;81;20233;-85
2021/08/21 11:00:58;;;;;;;;;;;;;;;22.22;60.96;98591.93;1757193;81;26026;-85
2021/08/21 11:03:26;;;;;;;;;;;;;;;22.28;61.07;98595.73;1769733;80;25307;-85
2021/08/21 11:05:53;;;;;;;;;;;;;;;22.32;61.10;98590.36;1782183;80;20397;-85
2021/08/21 11:08:21;;;;;;;;;;;;;;;22.45;61.17;98590.61;1776770;80;25581;-85
2021/08/21 11:10:47;;;;;;;;;;;;;;;22.53;61.05;98599.36;1785101;80;22748;-85
2021/08/21 11:16:01;;;;;;;;;;;;;;;22.63;60.74;98591.14;1751806;81;24409;-85
2021/08/21 11:18:28;;;;;;;;;;;;;;;22.65;60.52;98594.44;1736086;81;20540;-85
2021/08/21 11:20:54;;;;;;;;;;;;;;;22.65;60.31;98589.10;1739328;81;24677;-85
2021/08/21 11:23:20;;;;;;;;;;;;;;;22.75;60.22;98595.05;1729798;81;22074;-86
2021/08/21 11:25:47;;;;;;;;;;;;;;;22.81;60.09;98584.16;1749773;81;26065;-85
2021/08/21 11:28:20;;;;;;;;;;;;;;;22.80;59.92;98584.66;1782740;79;24595;-86
2021/08/21 11:31:06;;;;;;;;;;;;;;;22.82;59.86;98587.16;1785127;79;20271;-86
2021/08/21 11:33:33;;;;;;;;;;;;;;;22.81;59.73;98586.83;1739745;82;24576;-86
2021/08/21 11:36:01;;;;;;;;;;;;;;;22.72;59.48;98590.08;1752759;81;22623;-86
2021/08/21 11:38:28;;;;;;;;;;;;;;;22.72;59.23;98580.74;1758629;80;26019;-85
2021/08/21 11:40:59;;;;;;;;;;;;;;;22.83;59.03;98580.31;1757671;81;24605;-86
2021/08/21 11:43:33;;;;;;;;;;;;;;;23.04;59.00;98586.77;1758562;79;20232;-86
2021/08/21 11:46:00;;;;;;;;;;;;;;;23.20;58.85;98578.09;1750184;81;24598;-87
2021/08/21 11:48:27;;;;;;;;;;;;;;;23.44;58.83;98578.83;1762297;81;22079;-87
2021/08/21 11:50:56;;;;;;;;;;;;;;;23.61;58.67;98577.66;1762020;81;25956;-84
2021/08/21 11:53:26;;;;;;;;;;;;;;;23.71;58.51;98569.67;1765182;81;24814;-85
2021/08/21 11:55:54;;;;;;;;;;;;;;;23.81;58.21;98573.88;1759819;81;20659;-85
2021/08/21 11:58:51;;;;;;;;;;;;;;;23.90;57.96;98574.91;1764311;81;24801;-85
2021/08/21 12:01:22;;;;;;;;;;;;;;;24.09;57.88;98570.31;1767392;81;22143;-85
2021/08/21 12:06:23;;;;;;;;;;;;;;;24.41;57.32;98575.70;1761175;81;24454;-87
2021/08/21 12:08:49;;;;;;;;;;;;;;;24.35;56.74;98572.95;1756350;81;20254;-88
2021/08/21 12:11:15;;;;;;;;;;;;;;;24.27;56.27;98571.25;1747451;81;24582;-89
2021/08/21 12:13:50;;;;;;;;;;;;;;;24.17;55.99;98575.55;1747407;81;20886;-89
2021/08/21 12:16:17;;;;;;;;;;;;;;;24.06;55.71;98572.52;1753811;80;26059;-89
2021/08/21 12:18:45;;;;;;;;;;;;;;;24.02;55.47;98572.58;1751064;81;24514;-89
2021/08/21 12:21:21;;;;;;;;;;;;;;;24.07;55.32;98564.81;1761439;80;20503;-89
2021/08/21 12:23:48;;;;;;;;;;;;;;;24.11;55.09;98570.13;1744641;81;24652;-88
2021/08/21 12:26:21;;;;;;;;;;;;;;;24.08;54.82;98569.98;1733515;82;21985;-89
2021/08/21 12:28:50;;;;;;;;;;;;;;;23.94;54.51;98572.71;1741875;81;25968;-89
2021/08/21 12:31:19;;;;;;;;;;;;;;;23.85;54.34;98568.47;1746655;82;24381;-88
2021/08/21 12:33:48;;;;;;;;;;;;;;;23.81;54.22;98570.70;1762190;80;20366;-88
2021/08/21 12:36:21;;;;;;;;;;;;;;;23.71;54.04;98563.49;1769822;80;24216;-88
2021/08/21 12:39:06;;;;;;;;;;;;;;;23.70;53.96;98559.16;1741781;82;22059;-85
2021/08/21 12:41:33;;;;;;;;;;;;;;;23.74;53.97;98557.25;1773364;80;25943;-85
2021/08/21 12:44:14;;;;;;;;;;;;;;;23.85;53.94;98559.95;1727527;82;24442;-85
2021/08/21 12:46:54;;;;;;;;;;;;;;;23.92;53.88;98558.69;1733306;81;20262;-85
2021/08/21 12:49:40;;;;;;;;;;;;;;;23.96;53.70;98558.63;1748024;81;24532;-85
2021/08/21 12:52:10;;;;;;;;;;;;;;;24.03;53.46;98554.19;1746947;80;22136;-86
2021/08/21 12:54:39;;;;;;;;;;;;;;;24.00;53.13;98556.72;1744678;80;26092;-86
2021/08/21 12:57:06;;;;;;;;;;;;;;;24.00;52.97;98553.24;1752688;81;25065;-86
2021/08/21 12:59:34;;;;;;;;;;;;;;;23.96;52.74;98550.61;1772413;80;20308;-85
2021/08/21 13:02:04;;;;;;;;;;;;;;;23.97;52.55;98542.41;1728287;82;24541;-86